createdAt,value
2018-08-17T00:03:56.964Z,86.10
2018-08-17T00:08:05.133Z,86.20
2018-08-17T00:12:13.277Z,86.70
2018-08-17T00:16:21.427Z,86.90
2018-08-17T00:20:29.629Z,87.50
2018-08-17T00:24:37.804Z,87.60
2018-08-17T00:28:45.962Z,87.70
2018-08-17T00:32:54.152Z,87.80
2018-08-17T00:37:02.375Z,87.70
2018-08-17T00:41:10.536Z,88.30
2018-08-17T00:45:18.700Z,88.30
2018-08-17T00:49:26.903Z,88.30
2018-08-17T00:53:35.043Z,88.70
2018-08-17T00:57:43.256Z,89.00
2018-08-17T01:01:51.431Z,89.10
2018-08-17T01:05:59.609Z,88.80
2018-08-17T01:10:07.765Z,89.00
2018-08-17T01:14:15.924Z,89.10
2018-08-17T01:18:24.100Z,89.30
2018-08-17T01:22:32.249Z,89.90
2018-08-17T01:26:40.400Z,90.00
2018-08-17T01:30:48.564Z,90.00
2018-08-17T01:34:56.729Z,90.00
2018-08-17T01:39:07.100Z,90.10
2018-08-17T01:43:15.228Z,90.10
2018-08-17T01:47:23.404Z,90.10
2018-08-17T01:55:39.911Z,89.70
2018-08-17T01:59:48.051Z,89.50
2018-08-17T02:03:56.166Z,88.90
2018-08-17T02:08:04.300Z,88.60
2018-08-17T02:12:12.463Z,88.50
2018-08-17T02:16:20.547Z,88.90
2018-08-17T02:20:28.659Z,89.00
2018-08-17T02:24:36.783Z,89.00
2018-08-17T02:28:44.911Z,89.40
2018-08-17T02:32:53.071Z,89.60
2018-08-17T02:37:01.327Z,90.00
2018-08-17T02:41:09.439Z,91.00
2018-08-17T02:45:17.559Z,91.20
2018-08-17T02:49:25.698Z,91.30
2018-08-17T02:53:33.816Z,92.40
2018-08-17T02:57:41.953Z,92.20
2018-08-17T03:01:50.082Z,92.20
2018-08-17T03:05:58.200Z,92.30
2018-08-17T03:10:06.326Z,92.50
2018-08-17T03:14:14.443Z,93.20
2018-08-17T03:18:22.624Z,93.10
2018-08-17T03:22:30.747Z,93.20
2018-08-17T03:26:38.866Z,93.30
2018-08-17T03:30:47.000Z,93.70
2018-08-17T03:34:55.127Z,94.00
2018-08-17T03:39:03.535Z,93.70
2018-08-17T03:43:11.648Z,93.50
2018-08-17T03:47:19.768Z,93.70
2018-08-17T03:51:27.908Z,94.60
2018-08-17T03:55:36.032Z,93.70
2018-08-17T03:59:44.582Z,93.40
2018-08-17T04:03:52.736Z,93.10
2018-08-17T04:08:00.895Z,92.80
2018-08-17T04:12:09.015Z,92.60
2018-08-17T04:16:17.140Z,92.50
2018-08-17T04:20:25.258Z,92.50
2018-08-17T04:24:33.977Z,92.30
2018-08-17T04:28:42.106Z,92.20
2018-08-17T04:32:50.331Z,91.60
2018-08-17T04:36:58.444Z,91.40
2018-08-17T04:41:06.590Z,91.10
2018-08-17T04:45:14.757Z,90.60
2018-08-17T04:49:22.949Z,89.90
2018-08-17T04:53:31.011Z,89.50
2018-08-17T04:57:39.151Z,89.30
2018-08-17T05:01:47.286Z,89.20
2018-08-17T05:05:55.440Z,88.30
2018-08-17T05:10:03.776Z,87.60
2018-08-17T05:14:11.876Z,86.80
2018-08-17T05:18:20.031Z,86.40
2018-08-17T05:22:28.171Z,86.10
2018-08-17T05:26:36.308Z,85.60
2018-08-17T05:30:44.472Z,85.10
2018-08-17T05:34:52.590Z,84.60
2018-08-17T05:39:00.738Z,84.10
2018-08-17T05:43:08.964Z,83.70
2018-08-17T05:47:17.103Z,83.20
2018-08-17T05:51:25.243Z,83.10
2018-08-17T05:55:33.372Z,83.10
2018-08-17T05:59:41.508Z,84.30
2018-08-17T06:03:49.643Z,85.00
2018-08-17T06:07:57.767Z,84.40
2018-08-17T06:12:05.941Z,84.10
2018-08-17T06:16:14.071Z,84.00
2018-08-17T06:20:22.209Z,82.00
2018-08-17T06:24:30.345Z,81.00
2018-08-17T06:28:38.483Z,80.20
2018-08-17T06:32:46.610Z,79.70
2018-08-17T06:36:54.847Z,80.60
2018-08-17T06:41:02.987Z,81.50
2018-08-17T06:45:12.040Z,82.70
2018-08-17T06:49:20.171Z,83.70
2018-08-17T06:53:28.287Z,84.90
2018-08-17T06:57:36.555Z,86.40
2018-08-17T07:01:44.686Z,86.50
2018-08-17T07:05:52.818Z,86.20
2018-08-17T07:10:00.949Z,85.70
2018-08-17T07:18:17.467Z,86.70
2018-08-17T07:22:25.597Z,87.60
2018-08-17T07:26:33.719Z,88.60
2018-08-17T07:30:41.860Z,89.10
2018-08-17T07:34:50.611Z,89.60
2018-08-17T07:38:58.745Z,89.70
2018-08-17T07:43:07.475Z,90.00
2018-08-17T07:51:23.523Z,91.30
2018-08-17T07:55:31.680Z,91.80
2018-08-17T07:59:39.825Z,92.30
2018-08-17T08:07:55.888Z,88.20
2018-08-17T08:12:04.037Z,87.20
2018-08-17T08:16:12.180Z,86.70
2018-08-17T08:20:31.457Z,85.10
2018-08-17T08:24:39.815Z,84.20
2018-08-17T08:28:47.959Z,83.40
2018-08-17T08:32:56.118Z,81.20
2018-08-17T08:37:04.266Z,76.10
2018-08-17T08:41:12.410Z,71.00
2018-08-17T08:45:20.584Z,68.50
2018-08-17T08:49:28.700Z,67.50
2018-08-17T08:53:36.836Z,68.00
2018-08-17T08:57:44.964Z,66.80
2018-08-17T09:01:53.109Z,65.30
2018-08-17T09:06:01.229Z,66.80
2018-08-17T09:10:10.261Z,65.60
2018-08-17T09:14:18.403Z,64.40
2018-08-17T09:18:26.552Z,63.30
2018-08-17T09:22:34.676Z,62.20
2018-08-17T09:26:42.792Z,61.20
2018-08-17T09:30:50.927Z,60.80
2018-08-17T09:34:59.076Z,60.90
2018-08-17T09:39:07.911Z,60.70
2018-08-17T09:43:16.039Z,59.00
2018-08-17T09:47:24.175Z,60.50
2018-08-17T09:51:35.916Z,62.00
2018-08-17T09:55:44.051Z,63.20
2018-08-17T09:59:52.228Z,63.40
2018-08-17T10:04:05.964Z,63.40
2018-08-17T10:08:20.075Z,64.00
2018-08-17T10:12:28.318Z,63.00
2018-08-17T10:16:36.436Z,64.80
2018-08-17T10:20:44.713Z,65.20
2018-08-17T10:24:56.136Z,65.80
2018-08-17T10:29:04.280Z,66.20
2018-08-17T10:33:12.429Z,65.10
2018-08-17T10:37:20.561Z,64.80
2018-08-17T10:41:28.708Z,64.90
2018-08-17T10:45:36.843Z,66.50
2018-08-17T10:49:44.992Z,67.40
2018-08-17T10:53:53.132Z,67.70
2018-08-17T10:58:01.342Z,69.10
2018-08-17T11:02:09.407Z,68.30
2018-08-17T11:06:17.644Z,65.40
2018-08-17T11:10:25.803Z,61.40
2018-08-17T11:14:33.943Z,58.20
2018-08-17T11:18:42.080Z,57.60
2018-08-17T11:22:50.311Z,57.30
2018-08-17T11:26:58.400Z,57.90
2018-08-17T11:31:06.552Z,58.40
2018-08-17T11:35:14.712Z,57.70
2018-08-17T11:39:22.960Z,57.50
2018-08-17T11:43:31.091Z,59.90
2018-08-17T11:47:40.205Z,63.00
2018-08-17T11:51:48.347Z,64.80
2018-08-17T11:55:56.483Z,65.90
2018-08-17T12:00:04.792Z,67.70
2018-08-17T12:04:12.924Z,67.50
2018-08-17T12:08:21.962Z,66.80
2018-08-17T12:12:31.015Z,66.60
2018-08-17T12:16:39.543Z,65.80
2018-08-17T12:20:47.684Z,65.20
2018-08-17T12:24:56.778Z,64.00
2018-08-17T12:29:04.845Z,64.00
2018-08-17T12:33:13.440Z,63.50
2018-08-17T12:37:21.954Z,63.70
2018-08-17T12:41:31.977Z,63.80
2018-08-17T12:45:40.095Z,66.10
2018-08-17T12:49:48.204Z,67.80
2018-08-17T12:53:56.344Z,68.40
2018-08-17T12:58:04.543Z,68.00
2018-08-17T13:02:12.584Z,67.10
2018-08-17T13:06:20.719Z,66.10
2018-08-17T13:10:28.855Z,64.10
2018-08-17T13:14:36.968Z,63.50
2018-08-17T13:18:45.092Z,61.60
2018-08-17T13:22:53.285Z,60.60
2018-08-17T13:27:01.456Z,60.70
2018-08-17T13:31:09.577Z,61.50
2018-08-17T13:35:17.687Z,62.10
2018-08-17T13:39:25.807Z,61.80
2018-08-17T13:43:33.957Z,61.70
2018-08-17T13:47:42.071Z,61.60
2018-08-17T13:51:50.196Z,61.10
2018-08-17T13:55:58.417Z,61.20
2018-08-17T14:00:08.707Z,61.00
2018-08-17T14:04:16.840Z,61.30
2018-08-17T14:08:25.051Z,62.60
2018-08-17T14:12:33.097Z,63.70
2018-08-17T14:16:41.232Z,63.00
2018-08-17T14:20:49.360Z,61.10
2018-08-17T14:24:57.484Z,59.60
2018-08-17T14:29:05.604Z,57.40
2018-08-17T14:33:13.716Z,55.80
2018-08-17T14:37:21.834Z,54.20
2018-08-17T14:41:29.951Z,51.80
2018-08-17T14:45:38.075Z,51.30
2018-08-17T14:49:46.212Z,53.20
2018-08-17T14:53:54.341Z,53.70
2018-08-17T14:58:02.527Z,54.20
2018-08-17T15:02:10.652Z,54.20
2018-08-17T15:06:19.746Z,55.00
2018-08-17T15:10:27.892Z,55.30
2018-08-17T15:14:36.046Z,54.80
2018-08-17T15:18:44.240Z,55.40
2018-08-17T15:22:52.360Z,56.30
2018-08-17T15:27:00.499Z,55.50
2018-08-17T15:31:08.629Z,54.50
2018-08-17T15:35:16.750Z,54.10
2018-08-17T15:39:24.877Z,53.50
2018-08-17T15:43:32.322Z,52.80
2018-08-17T15:47:40.448Z,52.20
2018-08-17T15:51:48.599Z,51.50
2018-08-17T15:55:56.711Z,51.70
2018-08-17T16:00:06.796Z,52.20
2018-08-17T16:04:14.961Z,51.00
2018-08-17T16:12:30.960Z,50.40
2018-08-17T16:16:39.167Z,49.90
2018-08-17T16:20:47.287Z,50.90
2018-08-17T16:24:55.408Z,52.20
2018-08-17T16:29:04.105Z,52.80
2018-08-17T16:33:12.224Z,53.10
2018-08-17T16:37:20.413Z,53.10
2018-08-17T16:41:28.494Z,52.70
2018-08-17T16:45:35.941Z,53.10
2018-08-17T16:49:43.422Z,52.80
2018-08-17T16:53:51.543Z,53.00
2018-08-17T16:57:59.663Z,53.70
2018-08-17T17:02:07.791Z,53.30
2018-08-17T17:06:15.910Z,53.10
2018-08-17T17:10:28.184Z,52.70
2018-08-17T17:14:36.342Z,52.00
2018-08-17T17:18:44.446Z,49.60
2018-08-17T17:22:52.671Z,49.30
2018-08-17T17:27:00.876Z,47.60
2018-08-17T17:31:09.076Z,45.70
2018-08-17T17:35:17.188Z,44.60
2018-08-17T17:39:25.308Z,45.20
2018-08-17T17:43:33.428Z,45.00
2018-08-17T17:47:41.547Z,43.00
2018-08-17T17:51:49.683Z,41.60
2018-08-17T17:55:57.819Z,41.40
2018-08-17T18:00:05.939Z,42.80
2018-08-17T18:04:14.096Z,45.90
2018-08-17T18:08:22.236Z,48.50
2018-08-17T18:12:30.360Z,49.60
2018-08-17T18:16:38.507Z,51.10
2018-08-17T18:20:46.640Z,52.70
2018-08-17T18:24:57.211Z,54.00
2018-08-17T18:29:05.697Z,55.50
2018-08-17T18:33:13.822Z,57.00
2018-08-17T18:37:21.953Z,57.70
2018-08-17T18:41:30.099Z,58.30
2018-08-17T18:45:38.235Z,59.40
2018-08-17T18:49:46.361Z,60.20
2018-08-17T18:53:54.512Z,61.10
2018-08-17T18:58:02.648Z,62.30
2018-08-17T19:02:10.776Z,63.30
2018-08-17T19:10:26.863Z,66.70
2018-08-17T19:14:36.192Z,68.20
2018-08-17T19:18:44.327Z,69.50
2018-08-17T19:22:52.468Z,71.60
2018-08-17T19:27:00.628Z,71.60
2018-08-17T19:31:08.775Z,71.40
2018-08-17T19:35:17.426Z,71.30
2018-08-17T19:39:31.020Z,71.20
2018-08-17T19:43:39.339Z,72.20
2018-08-17T19:47:47.507Z,73.70
2018-08-17T19:51:55.625Z,75.00
2018-08-17T19:56:03.771Z,76.10
2018-08-17T20:00:12.703Z,77.30
2018-08-17T20:04:20.198Z,78.20
2018-08-17T20:08:28.347Z,78.80
2018-08-17T20:12:36.483Z,79.20
2018-08-17T20:16:44.614Z,80.10
2018-08-17T20:20:52.747Z,81.10
2018-08-17T20:29:08.792Z,82.50
2018-08-17T20:33:21.152Z,83.30
2018-08-17T20:37:29.275Z,83.20
2018-08-17T20:41:37.473Z,83.50
2018-08-17T20:45:45.615Z,83.20
2018-08-17T20:49:53.801Z,83.70
2018-08-17T20:54:02.892Z,84.30
2018-08-17T20:58:11.036Z,84.90
2018-08-17T21:02:19.288Z,85.30
2018-08-17T21:06:27.424Z,85.80
2018-08-17T21:10:35.550Z,86.80
2018-08-17T21:14:43.687Z,87.20
2018-08-17T21:18:51.823Z,87.20
2018-08-17T21:22:59.960Z,86.90
2018-08-17T21:27:08.088Z,87.60
2018-08-17T21:31:17.066Z,87.30
2018-08-17T21:35:25.999Z,87.50
2018-08-17T21:39:34.127Z,87.40
2018-08-17T21:43:42.267Z,86.60
2018-08-17T21:47:50.408Z,87.00
2018-08-17T21:52:00.583Z,87.40
2018-08-17T21:56:08.720Z,87.60
2018-08-17T22:00:31.013Z,87.80
2018-08-17T22:04:39.146Z,87.80
2018-08-17T22:08:47.267Z,87.80
2018-08-17T22:12:55.405Z,88.50
2018-08-17T22:17:03.704Z,88.60
2018-08-17T22:21:11.846Z,88.50
2018-08-17T22:25:19.968Z,88.60
2018-08-17T22:29:28.189Z,88.70
2018-08-17T22:33:36.227Z,88.60
2018-08-17T22:37:44.377Z,88.30
2018-08-17T22:41:52.549Z,88.30
2018-08-17T22:46:00.647Z,88.50
2018-08-17T22:50:08.778Z,88.70
2018-08-17T22:54:16.907Z,88.70
2018-08-17T22:58:25.055Z,88.90
2018-08-17T23:02:33.188Z,88.70
2018-08-17T23:06:41.524Z,88.60
2018-08-17T23:10:49.527Z,89.40
2018-08-17T23:14:57.683Z,88.30
2018-08-17T23:19:05.840Z,88.30
2018-08-17T23:23:13.993Z,88.80
2018-08-17T23:27:22.128Z,89.10
2018-08-17T23:31:30.263Z,88.90
2018-08-17T23:35:38.410Z,88.50
2018-08-17T23:39:46.548Z,89.30
2018-08-17T23:43:54.672Z,89.50
2018-08-17T23:48:02.487Z,89.60
2018-08-17T23:52:09.930Z,90.20
2018-08-17T23:56:18.040Z,89.50
